Latest Weather Observations for Scoresby

IDV60801

Issued at 5:32 pm EST Saturday 20 July 2024 (issued every 10 minutes, with the page automatically refreshed every 10 minutes)

About weather observations | Map of weather stations | Latest weather observations for VIC | Other Formats
Station Details ID: 086104 Name: SCORESBY RESEARCH INSTITUTE Lat: -37.87 Lon: 145.26 Height: 80.0 m
Data from the previous 72 hours. | See also: Recent months at Scoresby
Date/Time
EST
Temp
°C
App
Temp
°C
Dew
Point
°C
Rel
Hum
%
Delta-T
°C
Wind Press
QNH
hPa
Press
MSL
hPa
Rain since
9am
mm
Dir  Spd
km/h
Gust
km/h
Spd
kts
Gust
kts
20/05:00pm 11.0 7.9 8.9 87 1.0 W 15 28 8 15 - - 6.8
20/04:30pm 11.0 7.8 8.6 85 1.2 WSW 15 24 8 13 - - 6.4
20/04:00pm 11.1 8.0 8.7 85 1.2 W 15 26 8 14 - - 6.0
20/03:30pm 11.0 7.6 9.3 89 0.9 W 17 28 9 15 - - 5.6
20/03:00pm 10.8 7.7 8.9 88 0.9 W 15 24 8 13 - - 5.0
20/02:30pm 10.7 7.6 9.0 89 0.8 WNW 15 26 8 14 - - 4.4
20/02:00pm 10.7 8.3 8.6 87 1.0 W 11 22 6 12 - - 4.0
20/01:30pm 9.8 7.9 7.7 87 1.0 NW 7 13 4 7 - - 3.4
20/01:00pm 10.0 6.7 6.3 78 1.7 NW 13 26 7 14 - - 2.8
20/12:30pm 9.1 5.4 6.4 83 1.3 NNW 15 30 8 16 - - 2.4
20/12:00pm 8.4 5.9 6.4 87 0.9 NNW 9 20 5 11 - - 2.0
20/11:30am 8.3 5.3 5.8 84 1.1 NNW 11 19 6 10 - - 1.6
20/11:00am 8.5 5.0 5.4 81 1.4 NW 13 28 7 15 - - 1.2
20/10:30am 8.5 4.5 5.1 79 1.5 NW 15 26 8 14 - - 1.0
20/10:00am 8.7 4.3 4.9 77 1.7 NW 17 30 9 16 - - 0.6
20/09:30am 9.1 4.1 4.5 73 2.0 NW 20 33 11 18 - - 0.4
20/09:00am 9.5 5.4 4.3 70 2.3 NW 15 30 8 16 - - 1.4
20/08:30am 9.2 5.2 5.0 75 1.9 NW 15 30 8 16 - - 1.2
20/08:00am 9.1 5.3 5.7 79 1.6 NW 15 28 8 15 - - 0.8
20/07:30am 8.8 5.2 6.6 86 1.0 NW 15 32 8 17 - - 0.6
20/07:00am 9.0 5.7 6.4 84 1.2 NW 13 24 7 13 - - 0.4
20/06:30am 9.4 5.7 6.5 82 1.4 NW 15 30 8 16 - - 0.2
20/06:00am 10.5 6.5 6.6 77 1.8 NNW 17 30 9 16 - - 0.0
20/05:30am 10.8 7.2 6.6 75 2.0 N 15 33 8 18 - - 0.0
20/05:00am 10.8 7.2 6.6 75 2.0 N 15 32 8 17 - - 0.0
20/04:30am 10.8 7.2 6.6 75 2.0 N 15 28 8 15 - - 0.0
20/04:00am 10.9 6.5 6.5 74 2.1 N 19 30 10 16 - - 0.0
20/03:30am 10.9 7.2 6.5 74 2.1 N 15 28 8 15 - - 0.0
20/03:00am 11.1 6.7 6.6 74 2.1 N 19 32 10 17 - - 0.0
20/02:30am 11.1 6.5 6.6 74 2.1 N 20 39 11 21 - - 0.0
20/02:00am 11.1 6.8 6.8 75 2.0 N 19 41 10 22 - - 0.0
20/01:30am 11.2 6.6 6.5 73 2.2 N 20 43 11 23 - - 0.0
20/01:00am 11.3 6.7 6.4 72 2.3 N 20 46 11 25 - - 0.0
20/12:30am 11.4 6.0 6.5 72 2.3 N 24 52 13 28 - - 0.0
20/12:01am 11.6 5.4 6.3 70 2.5 N 28 50 15 27 - - 0.0
20/12:00am 11.6 5.8 6.3 70 2.5 N 26 50 14 27 - - 0.0
 
Date/Time
EST
Temp
°C
App
Temp
°C
Dew
Point
°C
Rel
Hum
%
Delta-T
°C
Wind Press
QNH
hPa
Press
MSL
hPa
Rain since
9am
mm
Dir  Spd
km/h
Gust
km/h
Spd
kts
Gust
kts
19/11:30pm 11.7 7.0 6.0 68 2.7 N 20 39 11 21 - - 0.0
19/11:00pm 11.9 6.4 6.0 67 2.8 N 24 43 13 23 - - 0.0
19/10:30pm 11.4 6.7 6.1 70 2.5 NNE 20 39 11 21 - - 0.0
19/10:00pm 11.7 5.8 5.8 67 2.8 NNE 26 46 14 25 - - 0.0
19/09:53pm 11.8 5.5 5.7 66 2.8 N 28 48 15 26 - - 0.0
19/09:30pm 11.6 5.8 6.3 70 2.5 NNE 26 50 14 27 - - 0.0
19/09:00pm 11.2 6.2 6.3 72 2.3 NNE 22 37 12 20 - - 0.0
19/08:30pm 11.0 6.0 6.4 73 2.2 NNE 22 39 12 21 - - 0.0
19/08:00pm 10.8 6.3 6.2 73 2.2 NNE 19 37 10 20 - - 0.0
19/07:30pm 10.6 5.9 6.2 74 2.1 NNE 20 32 11 17 - - 0.0
19/07:00pm 10.7 6.0 6.1 73 2.1 NNE 20 32 11 17 - - 0.0
19/06:30pm 10.6 5.8 5.8 72 2.2 N 20 37 11 20 - - 0.0
19/06:00pm 10.3 5.7 5.7 73 2.1 NNE 19 32 10 17 - - 0.0
19/05:30pm 10.2 5.6 5.8 74 2.0 NNE 19 35 10 19 - - 0.0
19/05:00pm 10.1 4.9 5.5 73 2.1 NNE 22 48 12 26 - - 0.0
19/04:30pm 10.2 5.1 5.8 74 2.0 NNE 22 37 12 20 - - 0.0
19/04:00pm 10.5 5.3 5.5 71 2.3 NNE 22 37 12 20 - - 0.0
19/03:30pm 10.6 5.0 5.4 70 2.4 NNE 24 41 13 22 - - 0.0
19/03:00pm 10.8 5.6 5.3 69 2.5 N 22 39 12 21 - - 0.0
19/02:30pm 10.6 5.0 5.4 70 2.4 NNE 24 39 13 21 - - 0.0
19/02:00pm 10.9 5.6 5.2 68 2.6 N 22 39 12 21 - - 0.0
19/01:30pm 11.1 6.3 5.4 68 2.6 N 20 37 11 20 - - 0.0
19/01:00pm 10.7 5.5 5.3 69 2.5 NNE 22 50 12 27 - - 0.0
19/12:30pm 10.7 6.4 5.3 69 2.5 N 17 33 9 18 - - 0.0
19/12:00pm 10.5 5.8 5.3 70 2.4 NNE 19 32 10 17 - - 0.0
19/11:30am 10.1 6.1 4.9 70 2.4 NNE 15 24 8 13 - - 0.0
19/11:00am 9.7 6.1 4.9 72 2.2 NNE 13 28 7 15 - - 0.0
19/10:30am 9.9 5.0 4.1 67 2.6 NNE 19 37 10 20 - - 0.0
19/10:00am 9.7 4.6 3.9 67 2.6 NNE 20 33 11 18 - - 0.0
19/09:30am 9.5 4.4 3.9 68 2.5 NNE 20 35 11 19 - - 0.0
19/09:00am 9.3 4.3 3.7 68 2.4 NNE 19 30 10 16 - - 1.4
19/08:30am 8.8 4.1 3.4 69 2.3 NNE 17 33 9 18 - - 1.4
19/08:00am 8.6 3.3 3.2 69 2.3 NNE 20 32 11 17 - - 1.4
19/07:30am 8.6 2.9 3.0 68 2.4 NNE 22 39 12 21 - - 1.4
19/07:00am 8.1 3.4 3.2 71 2.1 NNE 17 32 9 17 - - 1.4
19/06:30am 7.8 3.5 3.5 74 1.8 NNE 15 24 8 13 - - 1.4
19/06:00am 8.4 3.1 3.1 69 2.3 NNE 20 33 11 18 - - 1.4
19/05:30am 7.6 3.7 3.6 76 1.7 NNE 13 24 7 13 - - 1.4
19/05:00am 7.1 3.6 3.5 78 1.5 NNE 11 17 6 9 - - 1.4
19/04:30am 7.5 3.3 3.6 76 1.7 NNE 15 32 8 17 - - 1.4
19/04:00am 7.1 3.6 3.5 78 1.5 NNE 11 22 6 12 - - 1.4
19/03:30am 7.1 3.3 3.9 80 1.4 NNE 13 20 7 11 - - 1.4
19/03:00am 7.4 4.3 3.8 78 1.5 NNE 9 17 5 9 - - 1.4
19/02:30am 7.4 4.8 4.0 79 1.5 NNE 7 15 4 8 - - 1.4
19/02:00am 7.5 4.8 3.9 78 1.6 N 7 15 4 8 - - 1.4
19/01:30am 6.9 4.2 3.9 81 1.3 NE 7 9 4 5 - - 1.4
19/01:00am 7.3 4.3 3.9 79 1.5 NE 9 13 5 7 - - 1.4
19/12:30am 7.5 4.8 3.6 76 1.7 NE 7 11 4 6 - - 1.4
19/12:00am 7.4 4.3 3.6 77 1.6 NE 9 13 5 7 - - 1.4
 
Date/Time
EST
Temp
°C
App
Temp
°C
Dew
Point
°C
Rel
Hum
%
Delta-T
°C
Wind Press
QNH
hPa
Press
MSL
hPa
Rain since
9am
mm
Dir  Spd
km/h
Gust
km/h
Spd
kts
Gust
kts
18/11:30pm 7.3 4.3 3.9 79 1.5 NE 9 13 5 7 - - 1.4
18/11:00pm 7.2 4.6 4.0 80 1.4 NE 7 11 4 6 - - 1.4
18/10:30pm 7.5 5.1 4.3 80 1.4 NNE 6 9 3 5 - - 1.4
18/10:00pm 7.3 5.3 4.3 81 1.3 NE 4 7 2 4 - - 1.4
18/09:30pm 6.8 4.4 4.5 85 1.0 NNE 6 9 3 5 - - 1.4
18/09:00pm 6.9 4.9 4.4 84 1.1 NE 4 6 2 3 - - 1.4
18/08:30pm 7.5 5.6 5.1 85 1.1 NNE 4 7 2 4 - - 1.4
18/08:00pm 6.5 5.2 4.3 86 0.9 CALM 0 0 0 0 - - 1.4
18/07:30pm 7.2 5.9 4.2 81 1.3 CALM 0 0 0 0 - - 1.4
18/07:00pm 8.1 7.0 4.9 80 1.4 CALM 0 0 0 0 - - 1.4
18/06:30pm 9.1 7.8 3.9 70 2.3 CALM 0 0 0 0 - - 1.4
18/06:00pm 9.7 6.9 3.4 65 2.7 W 7 13 4 7 - - 1.4
18/05:30pm 9.6 7.5 4.0 68 2.5 W 4 7 2 4 - - 1.4
18/05:00pm 9.8 7.2 4.0 67 2.6 WSW 7 9 4 5 - - 1.4
18/04:30pm 10.0 7.0 4.0 66 2.7 W 9 15 5 8 - - 1.4
18/04:00pm 10.2 7.2 4.1 66 2.7 WSW 9 13 5 7 - - 1.4
18/03:30pm 10.5 7.5 4.0 64 2.9 WSW 9 15 5 8 - - 1.4
18/03:00pm 10.9 7.1 4.1 63 3.0 WSW 13 20 7 11 - - 1.4
18/02:30pm 10.9 7.5 3.9 62 3.1 SW 11 19 6 10 - - 1.4
18/02:00pm 10.7 6.1 3.5 61 3.2 W 17 30 9 16 - - 1.4
18/01:30pm 11.2 8.2 6.1 71 2.4 WSW 11 20 6 11 - - 1.4
18/01:00pm 10.0 6.1 5.4 73 2.1 WSW 15 22 8 12 - - 1.4
18/12:30pm 11.2 8.0 6.9 75 2.1 W 13 24 7 13 - - 1.2
18/12:00pm 10.4 7.4 5.8 73 2.1 WSW 11 19 6 10 - - 1.2
18/11:30am 10.4 7.7 5.4 71 2.3 WSW 9 19 5 10 - - 1.2
18/11:00am 9.9 8.1 7.0 82 1.4 WSW 6 11 3 6 - - 0.8
18/10:30am 9.0 7.2 7.3 89 0.8 WSW 6 9 3 5 - - 0.6
18/10:00am 8.3 6.3 6.9 91 0.7 W 7 11 4 6 - - 0.4
18/09:30am 8.2 6.4 7.1 93 0.5 W 6 9 3 5 - - 0.2
18/09:00am 7.8 5.9 6.9 94 0.4 WSW 6 11 3 6 - - 1.6
18/08:30am 7.7 6.2 6.6 93 0.5 W 4 7 2 4 - - 1.4
18/08:00am 7.4 6.3 6.8 96 0.3 NNE 2 6 1 3 - - 1.2
18/07:30am 7.4 6.3 7.0 97 0.2 W 2 6 1 3 - - 1.0
18/07:00am 7.0 6.2 6.6 97 0.2 CALM 0 0 0 0 - - 1.0
18/06:30am 6.9 6.1 6.3 96 0.3 CALM 0 0 0 0 - - 1.0
18/06:00am 7.0 6.2 6.4 96 0.3 CALM 0 0 0 0 - - 0.8
18/05:30am 7.6 6.5 7.0 96 0.3 WNW 2 6 1 3 - - 0.8
18/05:00am 7.6 6.8 6.7 94 0.4 CALM 0 0 0 0 - - 0.8
18/04:30am 7.8 6.3 6.7 93 0.5 SW 4 7 2 4 - - 0.8
18/04:00am 7.8 6.2 6.4 91 0.6 WSW 4 9 2 5 - - 0.8
18/03:30am 7.9 5.7 6.4 90 0.7 W 7 11 4 6 - - 0.8
18/03:00am 8.1 6.0 6.6 90 0.7 W 7 15 4 8 - - 0.8
18/02:30am 8.1 6.2 6.9 92 0.6 WNW 6 11 3 6 - - 0.8
18/02:00am 8.2 5.8 7.0 92 0.6 WNW 9 13 5 7 - - 0.8
18/01:30am 8.4 6.0 7.2 92 0.6 WNW 9 15 5 8 - - 0.8
18/01:00am 8.5 6.5 7.1 91 0.7 WNW 7 11 4 6 - - 0.6
18/12:30am 8.6 6.8 7.1 90 0.7 W 6 11 3 6 - - 0.6
18/12:00am 9.0 6.6 6.8 86 1.0 W 9 15 5 8 - - 0.6
 
Date/Time
EST
Temp
°C
App
Temp
°C
Dew
Point
°C
Rel
Hum
%
Delta-T
°C
Wind Press
QNH
hPa
Press
MSL
hPa
Rain since
9am
mm
Dir  Spd
km/h
Gust
km/h
Spd
kts
Gust
kts
17/11:30pm 9.6 7.4 5.2 74 2.0 WSW 6 9 3 5 - - 0.6
17/11:00pm 9.5 7.2 5.7 77 1.7 WSW 7 13 4 7 - - 0.6
17/10:30pm 9.4 6.7 7.2 86 1.0 W 11 20 6 11 - - 0.6
17/10:00pm 9.2 8.0 8.1 93 0.5 W 4 6 2 3 - - 0.4
17/09:30pm 8.7 8.1 7.6 93 0.5 CALM 0 0 0 0 - - 0.4
17/09:00pm 9.3 8.5 8.2 93 0.5 SW 2 6 1 3 - - 0.4
17/08:30pm 9.3 7.2 8.2 93 0.5 WSW 9 15 5 8 - - 0.4
17/08:00pm 10.1 7.8 9.0 93 0.5 SW 11 22 6 12 - - 0.4
17/07:30pm 10.4 7.3 8.7 89 0.8 WSW 15 24 8 13 - - 0.2
17/07:00pm 10.4 7.7 8.8 90 0.8 WSW 13 24 7 13 - - 0.2
17/06:30pm 10.6 8.4 9.2 91 0.7 WSW 11 19 6 10 - - 0.2
17/06:00pm 11.0 8.8 9.4 90 0.8 WSW 11 19 6 10 - - 0.2

Other formats

Comma delimited format used in spreadsheet applications
http://www.bom.gov.au/fwo/IDV60801/IDV60801.95867.axf

JavaScript Object Notation format (JSON) in row-major order
http://www.bom.gov.au/fwo/IDV60801/IDV60801.95867.json

Data quality

Most of these data are generated automatically and are frequently updated. Quality checks on data are not normally performed. It is possible for incorrect values to appear. Refer to information at About Latest Weather Observations and please check the disclaimer before using these data.